Time;durP1;ratioP1;P1;durP2;ratioP2;P2;SDS_P1;SDS_P2;PMS_P1;PMS_P2;Temp;Humidity;BMP_temperature;BMP_pressure;BME280_temperature;BME280_humidity;BME280_pressure;Samples;Min_cycle;Max_cycle;Signal;HPM_P1;HPM_P2
2022/10/19 00:00:28;;;;;;;8.45;2.13;;;11.10;99.90;;;;;;5022036;28;20506;-61
2022/10/19 00:02:54;;;;;;;7.75;2.33;;;11.10;99.90;;;;;;5024612;28;20064;-61
2022/10/19 00:05:19;;;;;;;8.20;1.73;;;11.20;99.90;;;;;;5022784;28;20045;-60
2022/10/19 00:07:45;;;;;;;5.30;1.27;;;11.20;99.90;;;;;;5033354;28;20052;-61
2022/10/19 00:10:11;;;;;;;5.93;1.65;;;11.20;99.90;;;;;;5030143;28;20045;-61
2022/10/19 00:12:37;;;;;;;5.57;1.63;;;11.20;99.90;;;;;;5024873;28;20063;-61
2022/10/19 00:15:04;;;;;;;8.63;1.63;;;11.30;99.90;;;;;;5017564;28;20033;-61
2022/10/19 00:17:29;;;;;;;5.97;1.73;;;11.20;99.90;;;;;;5026236;28;20041;-60
2022/10/19 00:19:55;;;;;;;6.20;2.28;;;11.30;99.90;;;;;;5004364;28;20054;-60
2022/10/19 00:22:21;;;;;;;6.78;1.60;;;11.30;99.90;;;;;;5025398;28;20571;-62
2022/10/19 00:24:47;;;;;;;6.88;2.50;;;11.30;99.90;;;;;;5012382;28;20073;-61
2022/10/19 00:27:13;;;;;;;7.38;1.63;;;11.20;99.90;;;;;;5010483;28;20138;-60
2022/10/19 00:29:38;;;;;;;5.38;1.65;;;11.20;99.90;;;;;;5010899;28;20120;-61
2022/10/19 00:32:04;;;;;;;7.75;1.38;;;11.10;99.90;;;;;;5012719;28;20041;-60
2022/10/19 00:34:30;;;;;;;12.57;1.80;;;11.20;99.90;;;;;;5017992;28;20037;-61
2022/10/19 00:36:55;;;;;;;7.20;1.60;;;11.20;99.90;;;;;;5011945;28;20124;-59
2022/10/19 00:39:21;;;;;;;5.82;2.50;;;11.20;99.90;;;;;;5011547;28;20053;-60
2022/10/19 00:41:47;;;;;;;7.15;1.70;;;11.20;99.90;;;;;;5014248;28;20045;-59
2022/10/19 00:44:14;;;;;;;5.40;1.40;;;11.20;99.90;;;;;;5011376;28;20041;-61
2022/10/19 00:46:43;;;;;;;4.80;1.20;;;11.20;99.90;;;;;;5009502;28;20431;-60
2022/10/19 00:49:14;;;;;;;5.07;1.67;;;11.30;99.90;;;;;;5008643;28;20393;-60
2022/10/19 00:51:43;;;;;;;5.35;1.98;;;11.30;99.90;;;;;;5010925;28;20045;-59
2022/10/19 00:54:10;;;;;;;9.07;2.08;;;11.30;99.90;;;;;;5022467;28;20473;-60
2022/10/19 00:56:40;;;;;;;4.15;1.70;;;11.30;99.90;;;;;;5009896;28;20056;-61
2022/10/19 00:59:07;;;;;;;4.57;1.23;;;11.40;99.90;;;;;;5027451;28;20040;-60
2022/10/19 01:01:34;;;;;;;6.43;2.30;;;11.40;99.90;;;;;;5014415;28;20060;-60
2022/10/19 01:04:01;;;;;;;4.53;1.35;;;11.40;99.90;;;;;;5012179;28;20045;-59
2022/10/19 01:06:27;;;;;;;6.97;1.25;;;11.30;99.90;;;;;;5015077;28;20037;-59
2022/10/19 01:08:53;;;;;;;6.47;1.30;;;11.40;99.90;;;;;;5019627;28;20477;-58
2022/10/19 01:11:19;;;;;;;5.93;1.35;;;11.40;99.90;;;;;;5016588;28;20033;-59
2022/10/19 01:14:00;;;;;;;8.25;1.60;;;11.40;99.90;;;;;;5017920;28;20041;-60
2022/10/19 01:16:45;;;;;;;9.65;1.92;;;11.40;99.90;;;;;;5017895;28;20140;-59
2022/10/19 01:19:29;;;;;;;4.80;1.27;;;11.40;99.90;;;;;;5020084;28;20125;-59
2022/10/19 01:22:18;;;;;;;7.15;1.70;;;11.40;99.90;;;;;;5024431;28;20054;-59
2022/10/19 01:24:51;;;;;;;6.13;1.60;;;11.40;99.90;;;;;;4992274;28;20045;-58
2022/10/19 01:27:42;;;;;;;9.93;1.38;;;11.40;99.90;;;;;;5015282;28;20049;-59
2022/10/19 01:30:19;;;;;;;5.68;1.63;;;11.40;99.90;;;;;;5040988;28;20465;-59
2022/10/19 01:33:17;;;;;;;35.40;3.20;;;11.50;99.90;;;;;;5036496;28;20041;-59
2022/10/19 01:35:50;;;;;;;6.72;1.40;;;11.50;99.90;;;;;;5013092;28;20521;-59
2022/10/19 01:38:39;;;;;;;8.35;1.75;;;11.50;99.90;;;;;;5020494;28;20130;-59
2022/10/19 01:41:26;;;;;;;6.68;1.30;;;11.50;99.90;;;;;;5010324;28;20080;-60
2022/10/19 01:44:06;;;;;;;5.10;1.50;;;11.60;99.90;;;;;;5023406;28;20457;-58
2022/10/19 01:46:32;;;;;;;6.53;1.27;;;11.60;99.90;;;;;;5013547;28;20439;-60
2022/10/19 01:49:03;;;;;;;8.55;1.63;;;11.60;99.90;;;;;;5007592;28;20044;-59
2022/10/19 01:51:32;;;;;;;4.97;1.20;;;11.70;99.90;;;;;;5009616;28;20037;-60
2022/10/19 01:54:03;;;;;;;7.57;1.50;;;11.60;99.90;;;;;;5015430;28;20080;-60
2022/10/19 01:56:31;;;;;;;6.70;1.30;;;11.70;99.90;;;;;;4999967;28;21896;-59
2022/10/19 01:59:02;;;;;;;5.57;1.40;;;11.60;99.90;;;;;;5012876;28;20675;-60
2022/10/19 02:01:32;;;;;;;9.63;1.40;;;11.60;99.90;;;;;;5019661;28;20049;-60
2022/10/19 02:03:59;;;;;;;6.50;1.38;;;11.60;99.90;;;;;;5011780;28;20048;-60
2022/10/19 02:06:25;;;;;;;9.95;1.73;;;11.60;99.90;;;;;;5010151;28;20430;-60
2022/10/19 02:08:52;;;;;;;5.38;1.20;;;11.60;99.90;;;;;;5010428;28;20413;-60
2022/10/19 02:11:19;;;;;;;9.82;1.35;;;11.60;99.90;;;;;;5012363;28;20034;-60
2022/10/19 02:13:48;;;;;;;9.07;2.83;;;11.60;99.90;;;;;;5008961;28;20052;-60
2022/10/19 02:16:20;;;;;;;6.57;1.30;;;11.60;99.90;;;;;;5017860;28;20034;-60
2022/10/19 02:18:49;;;;;;;7.18;1.13;;;11.60;99.90;;;;;;5012353;28;20033;-59
2022/10/19 02:21:15;;;;;;;5.13;1.17;;;11.70;99.90;;;;;;5009835;28;20045;-59
2022/10/19 02:23:41;;;;;;;12.15;1.48;;;11.70;99.90;;;;;;5052808;23;20064;-62
2022/10/19 02:26:07;;;;;;;5.72;1.48;;;11.60;99.90;;;;;;5006214;28;20056;-62
2022/10/19 02:28:33;;;;;;;5.13;1.17;;;11.60;99.90;;;;;;5038912;28;20043;-63
2022/10/19 02:31:00;;;;;;;8.13;1.80;;;11.60;99.90;;;;;;5014929;28;20041;-62
2022/10/19 02:33:27;;;;;;;4.05;0.90;;;11.60;99.90;;;;;;5013086;28;20077;-63
2022/10/19 02:35:53;;;;;;;7.88;1.38;;;11.60;99.90;;;;;;5019272;28;20033;-63
2022/10/19 02:38:21;;;;;;;7.63;1.20;;;11.60;99.90;;;;;;5013903;28;20059;-62
2022/10/19 02:41:11;;;;;;;7.65;1.27;;;11.60;99.90;;;;;;5010160;28;20124;-62
2022/10/19 02:43:40;;;;;;;4.68;1.00;;;11.60;99.90;;;;;;5016073;28;20136;-62
2022/10/19 02:46:19;;;;;;;6.93;1.48;;;11.60;99.90;;;;;;5016767;28;20523;-62
2022/10/19 02:48:46;;;;;;;5.30;0.93;;;11.50;99.90;;;;;;5008563;28;20113;-60
2022/10/19 02:51:28;;;;;;;5.72;1.05;;;11.50;99.90;;;;;;5005395;28;20041;-62
2022/10/19 02:53:53;;;;;;;7.25;1.45;;;11.50;99.90;;;;;;5013742;28;20121;-60
2022/10/19 02:56:19;;;;;;;5.25;1.20;;;11.50;99.90;;;;;;4999309;28;20064;-62
2022/10/19 02:58:45;;;;;;;8.60;1.48;;;11.50;99.90;;;;;;5014552;28;20042;-60
2022/10/19 03:01:11;;;;;;;7.15;1.25;;;11.50;99.90;;;;;;4998452;28;20675;-62
2022/10/19 03:03:36;;;;;;;7.28;1.33;;;11.40;99.90;;;;;;5012628;28;20042;-62
2022/10/19 03:06:02;;;;;;;6.68;1.33;;;11.40;99.90;;;;;;5016994;28;20313;-61
2022/10/19 03:08:28;;;;;;;11.40;1.45;;;11.40;99.90;;;;;;5014012;28;20037;-63
2022/10/19 03:11:00;;;;;;;6.20;1.77;;;11.30;99.90;;;;;;5017783;28;20717;-62
2022/10/19 03:13:25;;;;;;;7.82;1.10;;;11.20;99.90;;;;;;5017082;28;20033;-62
2022/10/19 03:15:51;;;;;;;8.68;1.40;;;11.10;99.90;;;;;;5017377;28;20110;-60
2022/10/19 03:18:17;;;;;;;6.50;1.38;;;11.10;99.90;;;;;;5013045;28;20324;-63
2022/10/19 03:20:43;;;;;;;6.97;1.30;;;11.00;99.90;;;;;;5009834;28;20048;-62
2022/10/19 03:23:08;;;;;;;7.32;1.35;;;11.00;99.90;;;;;;5016647;28;20080;-62
2022/10/19 03:25:34;;;;;;;8.02;1.23;;;11.00;99.90;;;;;;5020443;28;20564;-62
2022/10/19 03:28:00;;;;;;;8.23;1.58;;;11.00;99.90;;;;;;5014527;28;20450;-62
2022/10/19 03:30:26;;;;;;;11.48;1.83;;;11.00;99.90;;;;;;4995932;28;20052;-62
2022/10/19 03:32:51;;;;;;;7.30;1.27;;;11.00;99.90;;;;;;5024698;28;20072;-62
2022/10/19 03:35:17;;;;;;;9.85;1.63;;;11.00;99.90;;;;;;5020534;28;20040;-62
2022/10/19 03:37:43;;;;;;;6.20;1.10;;;10.90;99.90;;;;;;5005659;28;20077;-61
2022/10/19 03:40:11;;;;;;;14.90;1.73;;;11.00;99.90;;;;;;5022721;28;20476;-62
2022/10/19 03:42:37;;;;;;;5.05;1.77;;;11.00;99.90;;;;;;5018681;28;20049;-60
2022/10/19 03:45:03;;;;;;;7.72;1.50;;;11.00;99.90;;;;;;5014402;28;20046;-62
2022/10/19 03:47:29;;;;;;;10.35;1.67;;;10.90;99.90;;;;;;5004520;28;20053;-62
2022/10/19 03:49:54;;;;;;;7.18;1.50;;;11.00;99.90;;;;;;5013718;28;20512;-61
2022/10/19 03:52:20;;;;;;;17.38;1.77;;;11.00;99.90;;;;;;5017248;28;20515;-62
2022/10/19 03:54:49;;;;;;;6.30;1.60;;;11.00;99.90;;;;;;5017209;28;20053;-61
2022/10/19 03:57:15;;;;;;;8.15;1.20;;;11.00;99.90;;;;;;5005263;28;20048;-61
2022/10/19 03:59:41;;;;;;;9.35;1.38;;;11.00;99.90;;;;;;5015236;28;20041;-63
2022/10/19 04:02:06;;;;;;;6.97;1.20;;;11.00;99.90;;;;;;5023850;28;20184;-60
2022/10/19 04:04:32;;;;;;;6.55;1.65;;;11.00;99.90;;;;;;5015370;28;20037;-62
2022/10/19 04:06:58;;;;;;;9.60;1.30;;;11.00;99.90;;;;;;5010881;28;20041;-63
2022/10/19 04:09:24;;;;;;;7.15;1.42;;;11.00;99.90;;;;;;5012822;28;20379;-63
2022/10/19 04:11:49;;;;;;;7.60;1.67;;;10.90;99.90;;;;;;5037180;28;20421;-62
2022/10/19 04:14:17;;;;;;;14.30;2.05;;;10.90;99.90;;;;;;5017173;28;20079;-62
2022/10/19 04:16:43;;;;;;;9.55;1.40;;;10.90;99.90;;;;;;5007482;28;20671;-62
2022/10/19 04:19:13;;;;;;;7.90;1.23;;;10.80;99.90;;;;;;5011034;28;20041;-63
2022/10/19 04:21:39;;;;;;;11.05;1.63;;;10.80;99.90;;;;;;5003097;28;20125;-63
2022/10/19 04:24:08;;;;;;;6.95;1.58;;;10.80;99.90;;;;;;5016543;28;20113;-62
2022/10/19 04:26:39;;;;;;;8.65;1.70;;;10.80;99.90;;;;;;5009446;28;20079;-61
2022/10/19 04:29:04;;;;;;;4.50;1.00;;;10.70;99.90;;;;;;5009203;28;20077;-63
2022/10/19 04:31:30;;;;;;;10.95;1.58;;;10.70;99.90;;;;;;5000600;28;20803;-61
2022/10/19 04:33:56;;;;;;;7.93;1.60;;;10.70;99.90;;;;;;5003367;28;20065;-62
2022/10/19 04:36:23;;;;;;;7.47;1.48;;;10.60;99.90;;;;;;5006526;28;20212;-63
2022/10/19 04:38:48;;;;;;;15.05;2.75;;;10.50;99.90;;;;;;5015730;28;20116;-62
2022/10/19 04:41:17;;;;;;;10.07;2.28;;;10.40;99.90;;;;;;5006983;28;20148;-61
2022/10/19 04:43:44;;;;;;;7.93;2.20;;;10.40;99.90;;;;;;5014263;28;20033;-63
2022/10/19 04:46:12;;;;;;;12.80;2.65;;;10.40;99.90;;;;;;5021840;28;20061;-61
2022/10/19 04:48:39;;;;;;;13.75;3.20;;;10.40;99.90;;;;;;5005375;28;20485;-62
2022/10/19 04:51:06;;;;;;;11.73;2.90;;;10.30;99.90;;;;;;5006307;28;20042;-62
2022/10/19 04:53:33;;;;;;;8.23;2.90;;;10.20;99.90;;;;;;4999673;28;20246;-61
2022/10/19 04:55:59;;;;;;;13.50;5.78;;;10.10;99.90;;;;;;5018701;28;20400;-62
2022/10/19 04:58:26;;;;;;;13.43;7.38;;;10.10;99.90;;;;;;5031651;28;20476;-62
2022/10/19 05:00:51;;;;;;;17.75;7.90;;;10.00;99.90;;;;;;5012943;28;20037;-60
2022/10/19 05:03:17;;;;;;;16.40;5.70;;;10.00;99.90;;;;;;5014792;28;20056;-63
2022/10/19 05:05:43;;;;;;;13.73;5.53;;;10.10;99.90;;;;;;5021394;28;20127;-62
2022/10/19 05:08:10;;;;;;;15.05;5.55;;;10.10;99.90;;;;;;5019211;28;20040;-62
2022/10/19 05:10:36;;;;;;;18.02;8.70;;;10.10;99.90;;;;;;5019885;28;20381;-62
2022/10/19 05:13:03;;;;;;;16.13;8.25;;;10.10;99.90;;;;;;5023550;28;20477;-62
2022/10/19 05:15:29;;;;;;;16.38;8.60;;;10.10;99.90;;;;;;5024725;28;20332;-63
2022/10/19 05:17:55;;;;;;;14.27;8.52;;;10.20;99.90;;;;;;5003267;28;20098;-63
2022/10/19 05:20:22;;;;;;;19.48;8.20;;;10.20;99.90;;;;;;5019214;28;20053;-63
2022/10/19 05:22:47;;;;;;;18.60;6.03;;;10.30;99.90;;;;;;5020332;28;20406;-61
2022/10/19 05:25:13;;;;;;;12.80;4.47;;;10.30;99.90;;;;;;5021936;28;20045;-62
2022/10/19 05:27:39;;;;;;;13.30;5.20;;;10.30;99.90;;;;;;5022175;28;20544;-60
2022/10/19 05:30:07;;;;;;;12.30;5.20;;;10.30;99.90;;;;;;5017753;28;20606;-61
2022/10/19 05:32:33;;;;;;;12.07;4.57;;;10.30;99.90;;;;;;5018318;28;20037;-63
2022/10/19 05:34:58;;;;;;;7.80;3.67;;;10.40;99.90;;;;;;5004060;28;20052;-61
2022/10/19 05:37:24;;;;;;;12.07;3.67;;;10.40;99.90;;;;;;5006166;28;20045;-62
2022/10/19 05:39:50;;;;;;;10.80;4.10;;;10.40;99.90;;;;;;5014747;28;20271;-62
2022/10/19 05:42:16;;;;;;;9.40;3.40;;;10.50;99.90;;;;;;5010584;28;20120;-62
2022/10/19 05:44:42;;;;;;;9.10;2.85;;;10.50;99.90;;;;;;5026805;28;20554;-63
2022/10/19 05:47:07;;;;;;;15.98;2.83;;;10.60;99.90;;;;;;5012959;28;20274;-62
2022/10/19 05:49:33;;;;;;;8.98;2.40;;;10.60;99.90;;;;;;5014349;28;20571;-60
2022/10/19 05:51:59;;;;;;;15.18;2.88;;;10.60;99.90;;;;;;5007627;28;20073;-63
2022/10/19 05:54:25;;;;;;;9.30;2.42;;;10.50;99.90;;;;;;5019456;28;20476;-62
2022/10/19 05:56:51;;;;;;;10.52;2.15;;;10.50;99.90;;;;;;5003337;28;20310;-62
2022/10/19 05:59:19;;;;;;;13.95;2.30;;;10.60;99.90;;;;;;5017235;28;20091;-61
2022/10/19 06:01:45;;;;;;;10.77;2.33;;;10.60;99.90;;;;;;5001392;28;20041;-62
2022/10/19 06:04:12;;;;;;;11.75;2.10;;;10.60;99.90;;;;;;5003306;28;20611;-62
2022/10/19 06:06:38;;;;;;;7.95;2.38;;;10.60;99.90;;;;;;5006917;28;20161;-62
2022/10/19 06:09:04;;;;;;;8.70;2.38;;;10.60;99.90;;;;;;5018981;28;20049;-62
2022/10/19 06:11:33;;;;;;;9.57;1.80;;;10.60;99.90;;;;;;5000351;28;20099;-62
2022/10/19 06:14:02;;;;;;;8.80;1.73;;;10.60;99.90;;;;;;5006260;28;20042;-62
2022/10/19 06:16:32;;;;;;;7.93;1.40;;;10.70;99.90;;;;;;5004162;28;20099;-60
2022/10/19 06:18:58;;;;;;;13.18;2.00;;;10.60;99.90;;;;;;4999433;28;20044;-62
2022/10/19 06:21:27;;;;;;;15.02;2.10;;;10.70;99.90;;;;;;5001756;28;20465;-63
2022/10/19 06:23:58;;;;;;;9.93;1.90;;;10.70;99.90;;;;;;5004451;28;20091;-63
2022/10/19 06:26:25;;;;;;;12.07;1.92;;;10.70;99.90;;;;;;4999334;28;20077;-62
2022/10/19 06:28:54;;;;;;;14.38;2.08;;;10.70;99.90;;;;;;5002488;28;20033;-62
2022/10/19 06:31:20;;;;;;;11.65;1.90;;;10.80;99.90;;;;;;5002665;28;20080;-61
2022/10/19 06:33:46;;;;;;;15.40;2.33;;;10.70;99.90;;;;;;5004094;28;20128;-63
2022/10/19 06:36:14;;;;;;;12.02;1.77;;;10.70;99.90;;;;;;5006049;28;20125;-64
2022/10/19 06:38:41;;;;;;;6.40;1.73;;;10.80;99.90;;;;;;5005167;28;20037;-61
2022/10/19 06:41:07;;;;;;;10.20;1.92;;;10.80;99.90;;;;;;5003126;28;20174;-63
2022/10/19 06:43:33;;;;;;;9.13;2.05;;;10.80;99.90;;;;;;4998528;28;20477;-63
2022/10/19 06:46:07;;;;;;;10.45;1.70;;;10.80;99.90;;;;;;4995925;28;20073;-62
2022/10/19 06:48:33;;;;;;;8.00;1.60;;;10.80;99.90;;;;;;5000113;28;20532;-63
2022/10/19 06:51:02;;;;;;;11.65;2.20;;;10.80;99.90;;;;;;5003285;28;20045;-60
2022/10/19 06:53:28;;;;;;;13.25;2.00;;;10.90;99.90;;;;;;5011350;28;20405;-62
2022/10/19 06:55:58;;;;;;;10.90;1.88;;;10.90;99.90;;;;;;5011473;28;20041;-62
2022/10/19 06:58:24;;;;;;;11.25;2.55;;;10.90;99.90;;;;;;5001998;28;20048;-65
2022/10/19 07:00:57;;;;;;;9.90;1.77;;;10.90;99.90;;;;;;5003106;28;20457;-64
2022/10/19 07:03:24;;;;;;;9.10;1.93;;;11.00;99.90;;;;;;4997122;28;20037;-65
2022/10/19 07:05:58;;;;;;;10.20;1.77;;;11.00;99.90;;;;;;5012614;28;20701;-61
2022/10/19 07:08:26;;;;;;;16.35;2.55;;;11.10;99.90;;;;;;5007895;28;20570;-62
2022/10/19 07:10:53;;;;;;;8.00;1.55;;;11.10;99.90;;;;;;5016855;28;20384;-63
2022/10/19 07:13:20;;;;;;;13.27;2.00;;;11.10;99.90;;;;;;5013050;28;20046;-62
2022/10/19 07:15:46;;;;;;;8.30;2.30;;;11.20;99.90;;;;;;5020611;28;20471;-62
2022/10/19 07:18:12;;;;;;;6.78;1.40;;;11.20;99.90;;;;;;5013057;28;20068;-63
2022/10/19 07:20:37;;;;;;;11.05;1.92;;;11.20;99.90;;;;;;5010879;28;20041;-65
2022/10/19 07:23:03;;;;;;;7.95;1.95;;;11.20;99.90;;;;;;5011637;28;20041;-64
2022/10/19 07:25:29;;;;;;;9.73;1.70;;;11.30;99.90;;;;;;5018540;28;20201;-61
2022/10/19 07:27:55;;;;;;;7.60;1.85;;;11.30;99.90;;;;;;5021527;28;20574;-63
2022/10/19 07:30:21;;;;;;;15.65;1.80;;;11.40;99.90;;;;;;5010524;28;20038;-63
2022/10/19 07:32:47;;;;;;;9.35;1.95;;;11.40;99.90;;;;;;5023301;28;20104;-63
2022/10/19 07:35:13;;;;;;;12.27;3.20;;;11.40;99.90;;;;;;5020698;28;20045;-61
2022/10/19 07:37:39;;;;;;;10.15;1.92;;;11.50;99.90;;;;;;5012371;28;20034;-64
2022/10/19 07:40:06;;;;;;;9.73;1.70;;;11.50;99.90;;;;;;5013544;28;20084;-65
2022/10/19 07:42:31;;;;;;;15.07;2.25;;;11.50;99.90;;;;;;5011297;28;20076;-62
2022/10/19 07:44:57;;;;;;;17.80;2.05;;;11.50;99.90;;;;;;5018970;28;20068;-65
2022/10/19 07:47:23;;;;;;;7.65;1.88;;;11.60;99.90;;;;;;5003346;28;20099;-65
2022/10/19 07:49:48;;;;;;;10.48;2.20;;;11.60;99.90;;;;;;5002835;28;20443;-62
2022/10/19 07:52:14;;;;;;;7.90;1.75;;;11.60;99.90;;;;;;5023298;28;20488;-62
2022/10/19 07:54:40;;;;;;;10.25;1.52;;;11.60;99.90;;;;;;5016208;28;20056;-62
2022/10/19 07:57:06;;;;;;;10.32;2.17;;;11.70;99.90;;;;;;5020967;28;20922;-62
2022/10/19 07:59:32;;;;;;;7.63;1.63;;;11.70;99.90;;;;;;5008207;28;20068;-64
2022/10/19 08:02:01;;;;;;;11.48;1.58;;;11.70;99.90;;;;;;5013133;28;20474;-63
2022/10/19 08:04:26;;;;;;;15.68;2.10;;;11.80;99.90;;;;;;5003985;28;20050;-61
2022/10/19 08:06:52;;;;;;;5.97;1.60;;;11.80;99.90;;;;;;5024464;28;20034;-62
2022/10/19 08:09:18;;;;;;;8.95;2.35;;;11.90;99.90;;;;;;5017589;28;20087;-60
2022/10/19 08:11:43;;;;;;;9.20;2.30;;;11.90;99.90;;;;;;5000413;28;20102;-61
2022/10/19 08:14:09;;;;;;;13.13;2.50;;;12.00;99.90;;;;;;5004212;28;20042;-63
2022/10/19 08:16:40;;;;;;;11.50;1.63;;;12.00;99.90;;;;;;5025753;28;20414;-62
2022/10/19 08:19:08;;;;;;;17.85;8.07;;;12.00;99.90;;;;;;5024791;28;20472;-62
2022/10/19 08:21:35;;;;;;;9.98;1.70;;;12.00;99.90;;;;;;5005719;28;20658;-62
2022/10/19 08:24:01;;;;;;;10.27;1.92;;;12.10;99.90;;;;;;5049185;22;20114;-79
2022/10/19 08:26:29;;;;;;;12.20;2.33;;;12.10;99.90;;;;;;5000559;28;20109;-79
2022/10/19 08:28:59;;;;;;;10.82;2.30;;;12.10;99.90;;;;;;5018904;28;20045;-78
2022/10/19 08:31:25;;;;;;;11.00;1.75;;;12.20;99.90;;;;;;5032995;28;20052;-79
2022/10/19 08:33:50;;;;;;;12.60;2.00;;;12.20;99.90;;;;;;5019450;28;20160;-79
2022/10/19 08:36:18;;;;;;;7.43;1.58;;;12.20;99.90;;;;;;5038810;28;20119;-79
2022/10/19 08:38:47;;;;;;;8.85;1.60;;;12.30;99.90;;;;;;5017365;28;20555;-79
2022/10/19 08:41:32;;;;;;;9.63;1.30;;;12.30;99.90;;;;;;5032435;28;20041;-79
2022/10/19 08:44:41;;;;;;;10.52;1.85;;;12.40;99.90;;;;;;5018144;28;22142;-79
2022/10/19 08:47:23;;;;;;;7.30;1.33;;;12.40;99.90;;;;;;5013262;28;20110;-79
2022/10/19 08:49:50;;;;;;;7.55;1.23;;;12.40;99.90;;;;;;5033634;28;20067;-80
2022/10/19 08:52:23;;;;;;;9.98;1.38;;;12.30;99.90;;;;;;5035306;28;20044;-79
2022/10/19 08:54:53;;;;;;;9.98;1.50;;;12.40;99.90;;;;;;5040075;28;20045;-79
2022/10/19 08:57:43;;;;;;;11.88;1.80;;;12.40;99.90;;;;;;5044125;28;20037;-79
2022/10/19 09:00:30;;;;;;;12.00;1.50;;;12.40;99.90;;;;;;5009486;28;20051;-78
2022/10/19 09:03:41;;;;;;;12.32;2.08;;;12.50;99.90;;;;;;5029871;28;20049;-79
2022/10/19 09:06:27;;;;;;;9.20;1.48;;;12.50;99.90;;;;;;5017567;28;20046;-80
2022/10/19 09:08:54;;;;;;;14.40;2.50;;;12.50;99.90;;;;;;5017576;28;20041;-80
2022/10/19 09:11:26;;;;;;;15.20;5.90;;;12.50;99.90;;;;;;5036890;28;20089;-80
2022/10/19 09:14:04;;;;;;;8.20;1.80;;;12.60;99.90;;;;;;5031853;28;20100;-79
2022/10/19 09:16:30;;;;;;;6.68;1.45;;;12.60;99.90;;;;;;5038122;28;20437;-80
2022/10/19 09:18:55;;;;;;;8.70;1.55;;;12.60;99.90;;;;;;4998660;28;20052;-79
2022/10/19 09:21:45;;;;;;;11.65;1.50;;;12.60;99.90;;;;;;5027696;28;20156;-79
2022/10/19 09:25:28;;;;;;;7.45;1.75;;;12.60;99.90;;;;;;5017663;28;20127;-79
2022/10/19 09:28:43;;;;;;;6.32;1.50;;;12.60;99.90;;;;;;4883198;29;20079;-79
2022/10/19 09:31:17;;;;;;;9.20;1.35;;;12.60;99.90;;;;;;4843742;29;20049;-79
2022/10/19 09:33:47;;;;;;;7.00;1.38;;;12.60;99.90;;;;;;4965994;28;20117;-79
2022/10/19 09:36:12;;;;;;;12.77;2.45;;;12.60;99.90;;;;;;5003310;28;20064;-80
2022/10/19 09:38:38;;;;;;;13.82;2.67;;;12.70;99.90;;;;;;5010927;28;20041;-79
2022/10/19 09:41:16;;;;;;;9.43;1.48;;;12.80;99.90;;;;;;5005276;28;20065;-80
2022/10/19 09:43:49;;;;;;;11.40;1.70;;;12.70;99.90;;;;;;5040783;28;20080;-80
2022/10/19 09:46:34;;;;;;;4.30;1.25;;;12.70;99.90;;;;;;5031582;28;20094;-80
2022/10/19 09:49:02;;;;;;;9.52;1.60;;;12.70;99.90;;;;;;5043898;28;20030;-79
2022/10/19 09:52:04;;;;;;;11.52;1.50;;;12.80;99.90;;;;;;5045866;28;20029;-81
2022/10/19 09:54:38;;;;;;;10.63;1.80;;;12.80;99.90;;;;;;5010399;28;20082;-80
2022/10/19 09:57:22;;;;;;;6.95;1.30;;;12.90;99.90;;;;;;5042558;28;20037;-80
2022/10/19 09:59:51;;;;;;;5.43;1.33;;;12.90;99.90;;;;;;5025785;28;20210;-78
2022/10/19 10:02:19;;;;;;;10.55;1.50;;;13.00;99.90;;;;;;5039220;28;20089;-79
2022/10/19 10:05:14;;;;;;;6.60;1.45;;;13.10;99.90;;;;;;5045678;28;20041;-80
2022/10/19 10:07:40;;;;;;;9.50;1.40;;;13.10;99.90;;;;;;5022409;28;20430;-79
2022/10/19 10:10:18;;;;;;;10.95;2.50;;;13.10;99.90;;;;;;5031387;28;20089;-79
2022/10/19 10:12:46;;;;;;;8.55;1.80;;;13.10;99.90;;;;;;5021682;28;20041;-81
2022/10/19 10:15:24;;;;;;;10.82;1.65;;;13.20;99.90;;;;;;5007342;28;20103;-79
2022/10/19 10:17:51;;;;;;;9.13;1.42;;;13.20;99.90;;;;;;5052133;28;20042;-80
2022/10/19 10:20:29;;;;;;;8.52;1.70;;;13.20;99.90;;;;;;5002179;28;20437;-81
2022/10/19 10:23:03;;;;;;;15.63;1.83;;;13.20;99.90;;;;;;5003177;28;20041;-80
2022/10/19 10:25:35;;;;;;;9.68;1.42;;;13.20;99.90;;;;;;5040271;28;20045;-80
2022/10/19 10:28:19;;;;;;;11.18;1.90;;;13.20;99.90;;;;;;5036150;28;20041;-79
2022/10/19 10:30:47;;;;;;;7.05;1.50;;;13.10;99.90;;;;;;5019253;28;20034;-79
2022/10/19 10:33:24;;;;;;;9.35;1.63;;;13.10;99.90;;;;;;5033382;28;20056;-80
2022/10/19 10:35:52;;;;;;;11.85;1.95;;;13.10;99.90;;;;;;5030595;28;20033;-81
2022/10/19 10:38:24;;;;;;;8.45;1.70;;;13.10;99.90;;;;;;5036718;28;20367;-81
2022/10/19 10:41:03;;;;;;;10.80;1.58;;;13.20;99.90;;;;;;5026685;28;20044;-80
2022/10/19 10:43:31;;;;;;;3.53;1.30;;;13.10;99.90;;;;;;5011551;28;20044;-82
2022/10/19 10:46:23;;;;;;;9.95;1.80;;;13.20;99.90;;;;;;5015620;28;20481;-82
2022/10/19 10:49:04;;;;;;;9.65;1.40;;;13.20;99.90;;;;;;5018139;28;20118;-81
2022/10/19 10:51:36;;;;;;;12.93;2.55;;;13.30;99.90;;;;;;5027954;28;20048;-81
2022/10/19 10:54:17;;;;;;;7.85;2.63;;;13.40;99.90;;;;;;5020014;28;20044;-81
2022/10/19 10:56:53;;;;;;;7.57;1.65;;;13.40;99.90;;;;;;5033661;28;20080;-81
2022/10/19 10:59:33;;;;;;;9.93;3.53;;;13.40;99.90;;;;;;5008318;28;20045;-80
2022/10/19 11:02:20;;;;;;;8.55;1.33;;;13.40;99.90;;;;;;5032517;28;20064;-81
2022/10/19 11:04:55;;;;;;;8.65;1.27;;;13.40;99.90;;;;;;5018821;28;20524;-81
2022/10/19 11:07:23;;;;;;;13.45;2.17;;;13.50;99.90;;;;;;5018454;28;20069;-81
2022/10/19 11:10:05;;;;;;;8.77;2.20;;;13.50;99.90;;;;;;5020710;28;20033;-82
2022/10/19 11:13:07;;;;;;;9.18;1.33;;;13.60;99.90;;;;;;5030401;28;20042;-81
2022/10/19 11:15:44;;;;;;;10.10;2.53;;;13.70;99.90;;;;;;5022154;28;20053;-80
2022/10/19 11:18:20;;;;;;;7.43;1.35;;;13.70;99.90;;;;;;5032692;28;20061;-81
2022/10/19 11:21:05;;;;;;;6.18;1.27;;;13.70;99.90;;;;;;5039879;28;20061;-81
2022/10/19 11:24:00;;;;;;;12.60;1.83;;;13.60;99.90;;;;;;5045236;28;20033;-81
2022/10/19 11:26:54;;;;;;;7.25;1.42;;;13.60;99.90;;;;;;5037989;28;20500;-82
2022/10/19 11:29:40;;;;;;;6.30;1.60;;;13.70;99.90;;;;;;5036311;28;20034;-81
2022/10/19 11:32:19;;;;;;;8.13;1.40;;;13.60;99.90;;;;;;4992569;28;20320;-80
2022/10/19 11:35:28;;;;;;;5.00;1.10;;;13.70;99.90;;;;;;5043457;28;20060;-81
2022/10/19 11:38:22;;;;;;;6.15;1.20;;;13.70;99.90;;;;;;5005338;28;20105;-80
2022/10/19 11:40:59;;;;;;;5.85;1.00;;;13.70;99.90;;;;;;5038088;28;20318;-81
2022/10/19 11:43:27;;;;;;;5.18;1.45;;;13.80;99.90;;;;;;5037902;28;20109;-82
2022/10/19 11:46:03;;;;;;;7.35;1.42;;;13.80;99.90;;;;;;5023887;28;20037;-81
2022/10/19 11:48:32;;;;;;;8.38;1.85;;;13.80;99.90;;;;;;5042448;28;20137;-81
2022/10/19 11:51:14;;;;;;;13.40;1.60;;;13.70;99.90;;;;;;5024466;28;20033;-82
2022/10/19 11:54:15;;;;;;;7.40;1.73;;;13.60;99.90;;;;;;5018565;28;20064;-82
2022/10/19 11:56:52;;;;;;;6.45;1.17;;;13.50;99.90;;;;;;5039235;28;20053;-82
2022/10/19 11:59:33;;;;;;;9.45;1.42;;;13.50;99.90;;;;;;5034338;28;20041;-81
2022/10/19 12:02:18;;;;;;;11.88;1.92;;;13.60;99.90;;;;;;5022420;28;20057;-81
2022/10/19 12:04:46;;;;;;;;;;;13.70;99.90;;;;;;5038668;28;20107;-81
2022/10/19 12:07:33;;;;;;;6.40;1.27;;;14.00;99.90;;;;;;5040018;28;19980;-82
2022/10/19 12:10:09;;;;;;;4.18;1.48;;;14.10;99.90;;;;;;5048790;28;20046;-81
2022/10/19 12:12:42;;;;;;;9.20;1.60;;;14.30;99.90;;;;;;5025143;28;20047;-82
2022/10/19 12:15:10;;;;;;;7.80;1.40;;;14.30;99.90;;;;;;5042300;28;20060;-81
2022/10/19 12:17:39;;;;;;;7.82;2.08;;;14.10;99.90;;;;;;5024471;28;20041;-82
2022/10/19 12:20:23;;;;;;;8.00;1.70;;;14.10;99.90;;;;;;5032248;28;20041;-81
2022/10/19 12:22:49;;;;;;;12.02;1.40;;;14.00;99.90;;;;;;5021649;28;20046;-81
2022/10/19 12:25:17;;;;;;;8.75;1.85;;;14.40;99.90;;;;;;5040508;28;20038;-81
2022/10/19 12:27:47;;;;;;;7.70;1.40;;;14.40;99.90;;;;;;5041112;28;20069;-81
2022/10/19 12:30:15;;;;;;;8.18;1.73;;;14.20;99.90;;;;;;5060539;28;20047;-82
2022/10/19 12:32:50;;;;;;;6.95;1.30;;;14.00;99.90;;;;;;5025313;28;20073;-81
2022/10/19 12:35:58;;;;;;;9.02;1.50;;;13.90;99.90;;;;;;5039937;28;20030;-80
2022/10/19 12:38:47;;;;;;;5.85;1.33;;;14.00;99.90;;;;;;5019488;28;20049;-82
2022/10/19 12:41:36;;;;;;;5.28;1.25;;;14.50;99.90;;;;;;5039636;28;20069;-81
2022/10/19 12:44:12;;;;;;;11.05;1.63;;;14.60;99.90;;;;;;5036145;28;20055;-81
2022/10/19 12:46:45;;;;;;;5.38;1.50;;;14.70;99.90;;;;;;5025708;28;20041;-81
2022/10/19 12:49:28;;;;;;;7.25;1.35;;;14.60;99.90;;;;;;5043522;28;20033;-80
2022/10/19 12:51:57;;;;;;;6.88;1.95;;;14.40;99.90;;;;;;5018540;28;20045;-82
2022/10/19 12:54:25;;;;;;;6.03;1.30;;;14.30;99.90;;;;;;5016027;28;20048;-81
2022/10/19 12:56:53;;;;;;;8.18;1.58;;;14.20;99.90;;;;;;5037282;28;20049;-81
2022/10/19 12:59:31;;;;;;;6.75;1.35;;;14.20;99.90;;;;;;5035205;28;20045;-81
2022/10/19 13:01:58;;;;;;;8.23;1.83;;;14.10;99.90;;;;;;5047584;28;20033;-81
2022/10/19 13:04:34;;;;;;;6.15;1.70;;;14.10;99.90;;;;;;5032925;28;20511;-81